高知空港の過去48時間の天気

高知空港 (Kochi)

現在時刻: 4/26 20:29 JST (4/26 11:29 UTC) 以下の時間は現地時間です。

過去48時間のMETAR気象情報
時間 風向 風速(m/s) 視程 気温(℃) 湿度(%) 気圧(hPa) 天気現象
26 20:00 不定 1 10km以上 17 72 1013
26 19:00 不定 1 10km以上 18 68 1012
26 18:00 不定 1 10km以上 18 64 1012
26 17:00 2 10km以上 19 56 1012
26 16:00 南南西 3 10km以上 19 52 1012
26 15:00 南南西 4 10km以上 20 53 1012
26 14:00 南南西 3 10km以上 19 56 1012
26 13:00 4 10km以上 19 60 1012
26 12:00 3 10km以上 19 56 1012
26 11:00 4 10km以上 19 60 1013
26 10:00 南東 3 10km以上 18 64 1013
26 09:00 3 10km以上 18 60 1012
26 08:00 4 10km以上 17 48 1012
26 07:00 4 10km以上 14 59 1012
26 06:10 5 10km以上 13 58 1011
25 20:00 7 10km以上 17 59 1008
25 19:00 9 10km以上 17 59 1007
25 18:00 9 10km以上 19 56 1006
25 17:00 9 10km以上 20 53 1005
25 16:00 11 10km以上 21 49 1005
25 15:00 10 10km以上 21 49 1004
25 14:00 11 10km以上 20 53 1004
25 13:00 10 10km以上 21 49 1004
25 12:00 北北西 10 10km以上 21 53 1004
25 11:00 北北西 9 10km以上 21 56 1004
25 10:00 北北西 11 10km以上 20 56 1004
25 09:00 北北西 13 10km以上 20 53 1003
25 08:00 北北西 11 10km以上 20 56 1003
25 07:00 北北西 9 10km以上 19 64 1002
25 06:10 北北西 10 10km以上 19 64 1001
RJOK 261100Z VRB01KT CAVOK 17/12 Q1013
RJOK 261000Z VRB01KT CAVOK 18/12 Q1012
RJOK 260900Z VRB02KT CAVOK 18/11 Q1012
RJOK 260800Z 19004KT 150V220 CAVOK 19/10 Q1012
RJOK 260700Z 20006KT 170V230 9999 FEW030 BKN/// 19/09 Q1012
RJOK 260600Z 20007KT 9999 FEW025 BKN/// 20/10 Q1012
RJOK 260500Z 20006KT 160V240 9999 FEW025 SCT170 BKN/// 19/10 Q1012
RJOK 260400Z 18007KT 9999 FEW025 SCT170 BKN/// 19/11 Q1012
RJOK 260300Z 19006KT 160V220 9999 FEW025 SCT170 BKN/// 19/10 Q1012
RJOK 260200Z 18007KT 9999 FEW025 BKN/// 19/11 Q1013
RJOK 260100Z 14006KT 9999 FEW025 BKN/// 18/11 Q1013
RJOK 260000Z 01005KT 330V030 9999 FEW025 BKN/// 18/10 Q1012
RJOK 252300Z 36007KT 9999 FEW025 SCT150 BKN/// 17/06 Q1012
RJOK 252200Z 36008KT 9999 FEW020 BKN/// 14/06 Q1012
RJOK 252110Z 36009KT 9999 SCT020 BKN/// 13/05 Q1011 RMK 3CU020 A2987
RJOK 251100Z 35014KT 9999 FEW025 SCT035 BKN/// 17/09 Q1008
RJOK 251000Z 36017G27KT 9999 FEW025 SCT035 BKN/// 17/09 Q1007
RJOK 250900Z 36017G27KT 9999 FEW015 SCT025 BKN/// 19/10 Q1006
RJOK 250800Z 35018G31KT 9999 FEW025 BKN/// 20/10 Q1005
RJOK 250700Z 36021KT 9999 FEW025 BKN/// 21/10 Q1005
RJOK 250600Z 36020KT 9999 FEW025 BKN/// 21/10 Q1004
RJOK 250500Z 35022KT 9999 FEW025 BKN/// 20/10 Q1004
RJOK 250400Z 35020KT 9999 FEW025 BKN/// 21/10 Q1004
RJOK 250300Z 34019KT 9999 FEW025 BKN/// 21/11 Q1004
RJOK 250200Z 34018KT 9999 FEW025 BKN/// 21/12 Q1004
RJOK 250100Z 34021KT 9999 FEW030 20/11 Q1004
RJOK 250000Z 34025G37KT 9999 FEW030 20/10 Q1003
RJOK 242300Z 34022KT 9999 FEW025 BKN110 20/11 Q1003
RJOK 242200Z 33018KT 9999 FEW025 SCT080 19/12 Q1002
RJOK 242110Z 34020KT 9999 FEW025 BKN060 19/12 Q1001 RMK 1CU025 6SC060 A2957